Time;durP1;ratioP1;P1;durP2;ratioP2;P2;SDS_P1;SDS_P2;PMS_P1;PMS_P2;Temp;Humidity;BMP_temperature;BMP_pressure;BME280_temperature;BME280_humidity;BME280_pressure;Samples;Min_cycle;Max_cycle;Signal;HPM_P1;HPM_P2
2022/10/20 00:02:21;;;;;;;3.33;1.17;;;;;;;1.17;100.00;102052.47;4934399;29;20066;-83
2022/10/20 00:04:47;;;;;;;3.43;1.20;;;;;;;1.25;100.00;102051.06;4919549;29;20082;-81
2022/10/20 00:07:14;;;;;;;4.13;1.57;;;;;;;1.12;100.00;102041.91;4934904;29;20512;-83
2022/10/20 00:09:41;;;;;;;1.77;1.10;;;;;;;1.06;100.00;102047.75;4935186;29;20042;-82
2022/10/20 00:12:08;;;;;;;2.30;1.20;;;;;;;1.16;100.00;102042.91;4920338;29;20051;-83
2022/10/20 00:14:34;;;;;;;1.37;1.03;;;;;;;1.18;100.00;102043.84;4940376;29;20047;-83
2022/10/20 00:17:01;;;;;;;2.17;1.17;;;;;;;1.12;100.00;102036.69;4943826;29;20042;-83
2022/10/20 00:19:28;;;;;;;1.43;0.93;;;;;;;1.02;100.00;102043.25;4937045;28;20047;-82
2022/10/20 00:21:55;;;;;;;2.73;1.00;;;;;;;1.15;100.00;102031.59;4951769;28;20062;-83
2022/10/20 00:24:22;;;;;;;4.07;1.30;;;;;;;1.08;100.00;102035.66;4935581;29;20072;-82
2022/10/20 00:26:48;;;;;;;6.43;1.57;;;;;;;1.12;100.00;102029.78;4942434;29;20063;-82
2022/10/20 00:29:15;;;;;;;3.57;1.27;;;;;;;1.08;100.00;102029.56;4923730;29;20051;-82
2022/10/20 00:31:42;;;;;;;2.57;1.60;;;;;;;1.08;100.00;102025.25;4932709;29;20103;-83
2022/10/20 00:34:09;;;;;;;3.13;1.20;;;;;;;1.05;100.00;102026.88;4953630;28;20044;-82
2022/10/20 00:36:36;;;;;;;4.37;1.60;;;;;;;1.11;100.00;102022.78;4936550;29;20039;-83
2022/10/20 00:39:03;;;;;;;3.37;1.40;;;;;;;1.04;100.00;102030.28;4945314;28;20162;-82
2022/10/20 00:41:31;;;;;;;3.20;1.47;;;;;;;1.08;100.00;102029.56;4936508;29;20051;-83
2022/10/20 00:44:00;;;;;;;1.90;1.23;;;;;;;0.97;100.00;102023.94;4920607;29;20099;-82
2022/10/20 00:46:38;;;;;;;3.57;1.70;;;;;;;0.91;100.00;102023.69;4930059;29;20054;-83
2022/10/20 00:49:15;;;;;;;2.47;1.67;;;;;;;0.96;100.00;102018.69;4921232;29;20421;-82
2022/10/20 00:51:41;;;;;;;2.13;1.50;;;;;;;0.92;100.00;102022.88;4917805;29;20044;-81
2022/10/20 00:54:12;;;;;;;2.87;1.50;;;;;;;0.89;100.00;102020.16;4934504;29;20052;-83
2022/10/20 00:56:41;;;;;;;2.27;1.40;;;;;;;0.93;100.00;102023.78;4925789;29;20453;-82
2022/10/20 00:59:08;;;;;;;3.10;1.40;;;;;;;0.92;100.00;102021.97;4955059;28;20119;-82
2022/10/20 01:01:36;;;;;;;3.57;1.10;;;;;;;0.94;100.00;102026.44;4950138;29;20043;-83
2022/10/20 01:04:03;;;;;;;2.83;1.40;;;;;;;1.01;100.00;102025.88;4937186;29;20040;-82
2022/10/20 01:06:30;;;;;;;1.60;1.13;;;;;;;0.89;100.00;102017.53;4923800;29;20044;-84
2022/10/20 01:08:57;;;;;;;2.60;1.23;;;;;;;0.83;100.00;102017.28;4900599;29;20055;-83
2022/10/20 01:11:38;;;;;;;1.77;1.27;;;;;;;0.80;100.00;102019.78;4918048;29;20035;-84
2022/10/20 01:14:10;;;;;;;1.40;1.10;;;;;;;0.84;100.00;102017.38;4934256;29;20413;-84
2022/10/20 01:16:45;;;;;;;3.80;1.60;;;;;;;0.86;100.00;102016.56;4933754;29;20039;-83
2022/10/20 01:19:32;;;;;;;1.27;0.90;;;;;;;0.82;100.00;102006.00;4909203;29;20098;-84
2022/10/20 01:22:19;;;;;;;8.00;1.27;;;;;;;0.87;100.00;102013.13;4924026;29;20052;-82
2022/10/20 01:25:07;;;;;;;3.80;1.13;;;;;;;0.78;100.00;102004.13;5025851;23;20050;-85
2022/10/20 01:27:42;;;;;;;2.33;1.23;;;;;;;0.81;100.00;102008.53;4982352;28;20042;-85
2022/10/20 01:30:20;;;;;;;2.27;1.07;;;;;;;0.75;100.00;102001.38;4978688;28;20050;-84
2022/10/20 01:33:10;;;;;;;3.00;1.20;;;;;;;0.78;100.00;102003.22;4941625;28;20448;-84
2022/10/20 01:35:42;;;;;;;3.70;1.43;;;;;;;0.73;100.00;102004.75;4954225;28;20146;-83
2022/10/20 01:38:21;;;;;;;5.47;1.97;;;;;;;0.76;100.00;101999.69;4962525;28;20055;-82
2022/10/20 01:40:57;;;;;;;2.03;1.30;;;;;;;0.76;100.00;102007.50;4927603;28;20058;-84
2022/10/20 01:43:26;;;;;;;6.03;1.30;;;;;;;0.80;100.00;102001.56;4943518;29;20047;-84
2022/10/20 01:45:53;;;;;;;2.10;1.57;;;;;;;0.92;100.00;101996.84;4961500;28;20039;-83
2022/10/20 01:48:22;;;;;;;2.33;1.60;;;;;;;0.83;100.00;101988.66;4951650;28;20065;-83
2022/10/20 01:50:49;;;;;;;3.20;1.90;;;;;;;0.69;100.00;101987.25;4959519;28;20059;-82
2022/10/20 01:53:16;;;;;;;2.53;1.40;;;;;;;0.76;100.00;101973.66;4957667;28;20043;-83
2022/10/20 01:55:43;;;;;;;1.70;1.30;;;;;;;0.58;100.00;101976.38;4940436;29;20436;-82
2022/10/20 01:58:37;;;;;;;2.27;1.60;;;;;;;0.70;100.00;101978.63;4956929;28;20134;-82
2022/10/20 02:01:20;;;;;;;2.60;1.40;;;;;;;0.64;100.00;101970.56;4962119;28;20038;-83
2022/10/20 02:03:58;;;;;;;2.37;1.20;;;;;;;0.61;100.00;101965.25;4944435;28;20043;-83
2022/10/20 02:06:42;;;;;;;2.20;1.37;;;;;;;0.61;100.00;101962.63;4926737;23;20382;-76
2022/10/20 02:09:17;;;;;;;2.30;1.30;;;;;;;0.66;100.00;101956.78;4912605;29;20433;-76
2022/10/20 02:11:52;;;;;;;3.58;1.30;;;;;;;0.69;100.00;101950.84;4886445;29;20041;-76
2022/10/20 02:14:19;;;;;;;9.07;1.40;;;;;;;0.72;100.00;101950.94;4864622;29;20045;-77
2022/10/20 02:16:50;;;;;;;2.67;1.30;;;;;;;0.78;100.00;101948.59;4878041;29;20048;-77
2022/10/20 02:19:20;;;;;;;3.07;1.30;;;;;;;0.68;100.00;101949.06;4886159;29;20048;-76
2022/10/20 02:21:47;;;;;;;2.47;1.20;;;;;;;0.60;100.00;101946.16;4878268;29;20041;-77
2022/10/20 02:24:14;;;;;;;3.13;1.30;;;;;;;0.65;100.00;101936.81;4912190;29;20045;-75
2022/10/20 02:26:42;;;;;;;2.23;1.43;;;;;;;0.62;100.00;101934.09;4909894;29;20033;-77
2022/10/20 02:29:17;;;;;;;3.13;1.37;;;;;;;0.64;100.00;101931.53;4880896;29;20129;-76
2022/10/20 02:31:44;;;;;;;4.13;1.30;;;;;;;0.68;100.00;101939.53;4891858;29;20039;-77
2022/10/20 02:34:11;;;;;;;2.33;1.17;;;;;;;0.68;100.00;101931.75;4877310;29;20084;-76
2022/10/20 02:36:40;;;;;;;3.07;1.30;;;;;;;0.62;100.00;101931.50;4921503;29;20036;-76
2022/10/20 02:39:07;;;;;;;1.83;1.00;;;;;;;0.71;100.00;101923.16;4881878;29;20558;-76
2022/10/20 02:41:35;;;;;;;2.20;1.20;;;;;;;0.66;100.00;101920.38;4893398;29;20060;-77
2022/10/20 02:44:01;;;;;;;3.93;1.57;;;;;;;0.65;100.00;101916.00;4878001;29;20052;-77
2022/10/20 02:46:28;;;;;;;4.20;1.73;;;;;;;0.66;100.00;101909.97;4888111;29;20041;-77
2022/10/20 02:48:55;;;;;;;1.67;1.10;;;;;;;0.61;100.00;101919.31;4882948;29;20047;-77
2022/10/20 02:51:21;;;;;;;2.10;1.20;;;;;;;0.59;100.00;101917.47;4879788;29;20070;-77
2022/10/20 02:53:48;;;;;;;4.30;1.87;;;;;;;0.56;100.00;101923.44;4862101;29;20044;-77
2022/10/20 02:56:15;;;;;;;2.83;1.57;;;;;;;0.65;100.00;101925.50;4875182;29;20041;-77
2022/10/20 02:58:42;;;;;;;3.37;1.50;;;;;;;0.53;100.00;101915.53;4893791;29;20092;-77
2022/10/20 03:01:08;;;;;;;2.73;1.73;;;;;;;0.55;100.00;101922.53;4895632;29;20072;-77
2022/10/20 03:03:35;;;;;;;1.87;1.40;;;;;;;0.53;100.00;101911.22;4880895;29;20526;-76
2022/10/20 03:06:13;;;;;;;3.13;1.60;;;;;;;0.57;100.00;101910.47;4879944;29;20053;-77
2022/10/20 03:08:39;;;;;;;3.70;1.67;;;;;;;0.66;100.00;101901.28;4894922;29;20048;-76
2022/10/20 03:11:06;;;;;;;2.00;1.33;;;;;;;0.59;100.00;101902.78;4910972;29;20115;-77
2022/10/20 03:13:33;;;;;;;2.83;1.37;;;;;;;0.61;100.00;101903.72;4894766;29;20140;-77
2022/10/20 03:16:00;;;;;;;4.20;1.50;;;;;;;0.62;100.00;101902.00;4878159;29;20041;-76
2022/10/20 03:18:27;;;;;;;2.67;1.40;;;;;;;0.66;100.00;101896.06;4904631;29;20072;-77
2022/10/20 03:20:53;;;;;;;3.07;1.33;;;;;;;0.69;100.00;101893.63;4911080;29;20081;-76
2022/10/20 03:23:20;;;;;;;3.00;1.67;;;;;;;0.68;100.00;101886.66;4909327;29;20470;-77
2022/10/20 03:25:47;;;;;;;3.60;1.47;;;;;;;0.66;100.00;101888.28;4894572;29;20490;-76
2022/10/20 03:28:13;;;;;;;3.73;1.30;;;;;;;0.55;100.00;101891.34;4862317;29;20073;-77
2022/10/20 03:30:40;;;;;;;3.40;1.80;;;;;;;0.63;100.00;101893.38;4892545;29;20101;-77
2022/10/20 03:33:07;;;;;;;4.50;1.80;;;;;;;0.50;100.00;101894.56;4894794;29;20041;-77
2022/10/20 03:35:33;;;;;;;4.13;1.77;;;;;;;0.61;100.00;101882.91;4914674;29;20126;-77
2022/10/20 03:38:00;;;;;;;2.37;1.50;;;;;;;0.69;100.00;101891.00;4897310;29;20044;-77
2022/10/20 03:40:26;;;;;;;2.37;1.60;;;;;;;0.71;100.00;101882.44;4925008;29;20082;-77
2022/10/20 03:42:53;;;;;;;2.43;1.80;;;;;;;0.73;100.00;101885.09;4876447;29;20083;-77
2022/10/20 03:45:20;;;;;;;8.93;1.90;;;;;;;0.77;100.00;101882.69;4905040;29;20069;-77
2022/10/20 03:47:46;;;;;;;3.17;1.77;;;;;;;0.81;100.00;101888.88;4879959;29;20040;-77
2022/10/20 03:50:13;;;;;;;2.53;1.60;;;;;;;0.79;100.00;101880.13;4893105;29;20482;-77
2022/10/20 03:52:40;;;;;;;3.27;1.77;;;;;;;0.67;100.00;101877.91;4895898;29;20112;-78
2022/10/20 03:55:07;;;;;;;3.83;1.57;;;;;;;0.73;100.00;101875.56;4892628;29;20454;-77
2022/10/20 03:57:33;;;;;;;1.93;1.37;;;;;;;0.75;100.00;101878.22;4880092;29;20390;-77
2022/10/20 04:00:00;;;;;;;3.87;1.40;;;;;;;0.64;100.00;101876.94;4890190;29;20093;-76
2022/10/20 04:02:31;;;;;;;3.10;1.50;;;;;;;0.68;100.00;101877.13;4878895;29;20057;-77
2022/10/20 04:04:59;;;;;;;2.80;1.60;;;;;;;0.70;100.00;101879.78;4890914;29;20048;-77
2022/10/20 04:07:26;;;;;;;2.77;1.70;;;;;;;0.63;100.00;101881.25;4906971;29;20060;-77
2022/10/20 04:09:53;;;;;;;4.33;2.07;;;;;;;0.65;100.00;101871.78;4886950;29;20044;-77
2022/10/20 04:12:19;;;;;;;2.90;2.20;;;;;;;0.67;100.00;101872.72;4878624;29;20045;-77
2022/10/20 04:14:46;;;;;;;3.47;2.13;;;;;;;0.70;100.00;101874.59;4905234;29;20458;-77
2022/10/20 04:17:13;;;;;;;2.30;1.60;;;;;;;0.60;100.00;101875.94;4873738;29;20045;-77
2022/10/20 04:19:40;;;;;;;2.83;2.00;;;;;;;0.56;100.00;101881.81;4892789;29;20109;-76
2022/10/20 04:22:07;;;;;;;4.33;1.60;;;;;;;0.71;100.00;101879.84;4892971;29;20040;-77
2022/10/20 04:24:34;;;;;;;3.23;1.67;;;;;;;0.56;100.00;101877.50;4903063;29;20044;-77
2022/10/20 04:27:01;;;;;;;4.53;1.73;;;;;;;0.60;100.00;101873.34;4891093;29;20048;-77
2022/10/20 04:29:27;;;;;;;3.70;1.37;;;;;;;0.62;100.00;101873.38;4890511;29;20550;-76
2022/10/20 04:31:54;;;;;;;3.10;1.60;;;;;;;0.56;100.00;101879.22;4878177;29;20072;-77
2022/10/20 04:34:21;;;;;;;3.13;1.70;;;;;;;0.62;100.00;101876.88;4871627;29;20049;-76
2022/10/20 04:36:47;;;;;;;3.53;2.10;;;;;;;0.62;100.00;101871.69;4889391;29;20827;-76
2022/10/20 04:39:14;;;;;;;4.13;1.70;;;;;;;0.56;100.00;101869.72;4877864;29;20093;-77
2022/10/20 04:41:41;;;;;;;3.57;1.80;;;;;;;0.55;100.00;101865.34;4892596;29;20522;-76
2022/10/20 04:44:08;;;;;;;4.33;1.80;;;;;;;0.63;100.00;101855.25;4888784;29;20049;-76
2022/10/20 04:46:34;;;;;;;2.73;1.73;;;;;;;0.61;100.00;101861.22;4906657;29;20100;-76
2022/10/20 04:49:01;;;;;;;3.93;1.70;;;;;;;0.54;100.00;101858.38;4894499;29;20407;-77
2022/10/20 04:51:28;;;;;;;3.97;2.57;;;;;;;0.59;100.00;101858.56;4892609;29;20053;-77
2022/10/20 04:53:55;;;;;;;2.90;1.80;;;;;;;0.50;100.00;101847.78;4894602;29;20048;-77
2022/10/20 04:56:22;;;;;;;4.67;2.70;;;;;;;0.57;100.00;101852.41;4892405;29;20049;-77
2022/10/20 04:58:49;;;;;;;3.37;2.10;;;;;;;0.56;100.00;101851.50;4895308;29;20096;-77
2022/10/20 05:01:16;;;;;;;3.13;2.10;;;;;;;0.51;100.00;101840.06;4883095;29;20072;-76
2022/10/20 05:03:43;;;;;;;3.93;2.30;;;;;;;0.49;100.00;101841.69;4886592;29;20053;-77
2022/10/20 05:06:12;;;;;;;4.27;2.20;;;;;;;0.51;100.00;101845.25;4887800;29;20067;-76
2022/10/20 05:08:40;;;;;;;4.93;1.90;;;;;;;0.50;100.00;101835.66;4881773;29;20411;-76
2022/10/20 05:11:07;;;;;;;3.67;1.90;;;;;;;0.54;100.00;101837.56;4888628;29;20045;-77
2022/10/20 05:13:33;;;;;;;6.10;2.53;;;;;;;0.59;100.00;101834.25;4909360;29;20096;-76
2022/10/20 05:16:00;;;;;;;2.50;1.97;;;;;;;0.55;100.00;101835.84;4878109;29;20403;-77
2022/10/20 05:18:27;;;;;;;4.70;3.07;;;;;;;0.42;100.00;101831.00;4909146;29;20545;-77
2022/10/20 05:20:54;;;;;;;4.13;2.00;;;;;;;0.37;100.00;101828.22;4914040;29;20048;-77
2022/10/20 05:23:35;;;;;;;3.90;2.50;;;;;;;0.40;100.00;101827.44;4898047;29;20518;-75
2022/10/20 05:26:03;;;;;;;3.87;2.00;;;;;;;0.36;100.00;101816.06;4896598;29;20072;-76
2022/10/20 05:28:29;;;;;;;5.60;2.70;;;;;;;0.46;100.00;101820.78;4910970;29;20072;-77
2022/10/20 05:31:00;;;;;;;3.97;2.17;;;;;;;0.48;100.00;101823.44;4897081;29;20040;-77
2022/10/20 05:33:27;;;;;;;3.33;1.93;;;;;;;0.49;100.00;101818.28;4890568;29;20112;-76
2022/10/20 05:35:53;;;;;;;3.63;2.00;;;;;;;0.46;100.00;101817.28;4869716;29;20136;-77
2022/10/20 05:38:20;;;;;;;4.67;2.40;;;;;;;0.52;100.00;101813.22;4912491;29;20048;-77
2022/10/20 05:40:47;;;;;;;6.33;2.80;;;;;;;0.56;100.00;101804.69;4889452;29;20042;-77
2022/10/20 05:43:13;;;;;;;3.93;2.30;;;;;;;0.45;100.00;101813.81;4876062;29;20105;-76
2022/10/20 05:45:42;;;;;;;4.43;2.10;;;;;;;0.41;100.00;101817.09;4896177;29;20048;-77
2022/10/20 05:48:09;;;;;;;3.70;2.20;;;;;;;0.36;100.00;101817.78;4879342;29;20052;-76
2022/10/20 05:50:37;;;;;;;4.37;2.23;;;;;;;0.36;100.00;101821.25;4888473;29;20478;-77
2022/10/20 05:53:04;;;;;;;14.33;3.10;;;;;;;0.53;100.00;101825.41;4883002;29;20437;-77
2022/10/20 05:55:31;;;;;;;3.83;2.30;;;;;;;0.42;100.00;101818.91;4894365;29;20051;-78
2022/10/20 05:57:58;;;;;;;4.23;2.40;;;;;;;0.55;100.00;101828.06;4892299;29;20072;-78
2022/10/20 06:00:29;;;;;;;4.30;2.30;;;;;;;0.48;100.00;101826.91;4898008;29;20049;-77
2022/10/20 06:02:56;;;;;;;4.53;2.00;;;;;;;0.49;100.00;101830.41;4912969;29;20081;-78
2022/10/20 06:05:23;;;;;;;5.50;2.57;;;;;;;0.52;100.00;101830.53;4880766;29;20143;-77
2022/10/20 06:07:53;;;;;;;3.17;2.20;;;;;;;0.44;100.00;101842.34;4890323;29;20045;-78
2022/10/20 06:10:19;;;;;;;3.20;2.37;;;;;;;0.42;100.00;101839.69;4910911;29;20462;-78
2022/10/20 06:12:46;;;;;;;3.73;2.57;;;;;;;0.44;100.00;101827.66;4894788;29;20652;-78
2022/10/20 06:15:12;;;;;;;5.07;2.17;;;;;;;0.49;100.00;101833.88;4884137;29;20049;-78
2022/10/20 06:17:39;;;;;;;5.33;3.00;;;;;;;0.48;100.00;101833.84;4911521;29;20041;-78
2022/10/20 06:20:06;;;;;;;4.83;2.40;;;;;;;0.56;100.00;101841.09;4895834;29;20103;-77
2022/10/20 06:22:33;;;;;;;3.50;2.40;;;;;;;0.59;100.00;101850.75;4895337;29;20109;-77
2022/10/20 06:25:03;;;;;;;6.67;2.53;;;;;;;0.63;100.00;101846.56;4910255;29;20045;-77
2022/10/20 06:27:29;;;;;;;7.07;2.77;;;;;;;0.56;100.00;101848.91;4889736;29;20414;-77
2022/10/20 06:29:56;;;;;;;4.67;2.30;;;;;;;0.71;100.00;101842.53;4864133;29;20114;-77
2022/10/20 06:32:23;;;;;;;7.40;2.53;;;;;;;0.75;100.00;101841.81;4910704;29;20056;-77
2022/10/20 06:34:50;;;;;;;3.37;2.37;;;;;;;0.79;100.00;101843.72;4904875;29;20535;-77
2022/10/20 06:37:17;;;;;;;6.20;2.57;;;;;;;0.72;100.00;101846.91;4878554;29;20047;-78
2022/10/20 06:39:43;;;;;;;5.80;2.40;;;;;;;0.74;100.00;101842.66;4892798;29;20112;-77
2022/10/20 06:42:10;;;;;;;5.47;3.37;;;;;;;0.75;100.00;101845.28;4877730;29;20105;-77
2022/10/20 06:44:38;;;;;;;6.37;2.63;;;;;;;0.83;100.00;101853.41;4902393;29;20549;-78
2022/10/20 06:47:08;;;;;;;7.80;3.00;;;;;;;0.70;100.00;101849.47;4878597;29;20053;-77
2022/10/20 06:49:35;;;;;;;5.30;2.27;;;;;;;0.79;100.00;101843.72;4874653;29;20068;-78
2022/10/20 06:52:02;;;;;;;4.33;2.20;;;;;;;0.87;100.00;101849.22;4909271;29;20051;-77
2022/10/20 06:54:29;;;;;;;3.93;2.40;;;;;;;0.98;100.00;101840.09;4880730;29;20049;-77
2022/10/20 06:56:55;;;;;;;7.40;2.60;;;;;;;0.95;100.00;101848.69;4909746;29;20100;-77
2022/10/20 06:59:22;;;;;;;4.13;2.10;;;;;;;0.90;100.00;101844.13;4894889;29;20100;-77
2022/10/20 07:01:49;;;;;;;4.97;2.43;;;;;;;0.98;100.00;101840.97;4909418;29;20453;-77
2022/10/20 07:04:16;;;;;;;5.07;2.63;;;;;;;1.05;100.00;101844.69;4873247;29;20045;-77
2022/10/20 07:06:44;;;;;;;4.33;2.30;;;;;;;1.06;100.00;101842.16;4895903;29;20096;-77
2022/10/20 07:09:14;;;;;;;3.10;1.90;;;;;;;1.10;100.00;101835.34;4863211;29;20060;-77
2022/10/20 07:11:41;;;;;;;6.73;2.50;;;;;;;1.18;100.00;101840.81;4884398;29;20084;-77
2022/10/20 07:14:09;;;;;;;4.43;2.27;;;;;;;1.16;100.00;101840.75;4909960;29;20707;-77
2022/10/20 07:16:36;;;;;;;4.07;2.47;;;;;;;1.27;100.00;101835.97;4882434;29;20047;-77
2022/10/20 07:19:03;;;;;;;3.87;2.20;;;;;;;1.24;100.00;101846.25;4878325;29;20095;-77
2022/10/20 07:21:30;;;;;;;4.97;2.27;;;;;;;1.38;100.00;101840.72;4897252;29;20045;-77
2022/10/20 07:24:04;;;;;;;6.57;2.00;;;;;;;1.45;100.00;101840.94;4891584;29;20041;-79
2022/10/20 07:26:33;;;;;;;3.97;2.00;;;;;;;1.42;100.00;101831.28;4890730;29;20044;-78
2022/10/20 07:29:01;;;;;;;5.73;3.03;;;;;;;1.51;100.00;101830.72;4882191;29;20122;-77
2022/10/20 07:31:37;;;;;;;6.70;3.53;;;;;;;1.71;100.00;101827.09;4877477;29;20048;-77
2022/10/20 07:34:05;;;;;;;5.93;3.07;;;;;;;2.12;100.00;101831.09;4893422;29;20075;-77
2022/10/20 07:36:49;;;;;;;4.00;2.30;;;;;;;2.14;100.00;101829.41;4889545;29;20044;-77
2022/10/20 07:39:15;;;;;;;6.17;3.10;;;;;;;2.31;100.00;101821.25;4878485;29;20502;-77
2022/10/20 07:41:44;;;;;;;5.07;2.63;;;;;;;2.31;100.00;101816.03;4910046;29;20048;-76
2022/10/20 07:44:11;;;;;;;5.70;3.00;;;;;;;2.50;100.00;101819.25;4863931;29;20421;-78
2022/10/20 07:46:37;;;;;;;5.93;3.27;;;;;;;2.65;100.00;101821.44;4893868;29;20060;-78
2022/10/20 07:49:04;;;;;;;7.33;3.20;;;;;;;2.91;100.00;101814.38;4878300;29;20486;-77
2022/10/20 07:51:50;;;;;;;8.60;3.10;;;;;;;2.90;100.00;101811.75;4881980;29;20044;-78
2022/10/20 07:54:17;;;;;;;5.60;2.97;;;;;;;3.14;100.00;101809.84;4879013;29;20044;-78
2022/10/20 07:56:45;;;;;;;4.37;2.73;;;;;;;3.17;100.00;101809.03;4878150;29;20104;-78
2022/10/20 07:59:11;;;;;;;6.13;3.20;;;;;;;3.30;100.00;101812.03;4878727;29;20414;-78
2022/10/20 08:01:38;;;;;;;6.83;3.00;;;;;;;3.41;100.00;101803.59;4878107;29;20077;-79
2022/10/20 08:04:05;;;;;;;5.07;2.97;;;;;;;3.47;100.00;101795.94;4894536;29;20710;-77
2022/10/20 08:06:32;;;;;;;3.87;2.93;;;;;;;3.73;100.00;101797.50;4873125;29;20045;-79
2022/10/20 08:08:59;;;;;;;7.17;3.37;;;;;;;3.91;100.00;101782.25;4879148;29;20568;-78
2022/10/20 08:11:25;;;;;;;5.37;2.43;;;;;;;3.94;100.00;101784.06;4877129;29;20048;-78
2022/10/20 08:13:52;;;;;;;4.57;2.70;;;;;;;4.03;100.00;101770.31;4879525;29;20048;-78
2022/10/20 08:16:19;;;;;;;5.97;2.97;;;;;;;4.08;100.00;101780.06;4877959;29;20486;-77
2022/10/20 08:18:52;;;;;;;6.30;3.63;;;;;;;4.31;100.00;101769.25;4880300;29;20041;-77
2022/10/20 08:21:31;;;;;;;5.33;3.27;;;;;;;4.40;100.00;101769.47;4901176;29;20475;-77
2022/10/20 08:23:58;;;;;;;5.30;3.23;;;;;;;4.59;100.00;101766.38;4893932;29;20083;-77
2022/10/20 08:26:25;;;;;;;5.37;2.63;;;;;;;4.67;100.00;101761.31;4893183;29;20092;-77
2022/10/20 08:28:53;;;;;;;4.97;3.30;;;;;;;4.87;100.00;101759.97;4880633;29;20076;-77
2022/10/20 08:31:29;;;;;;;5.90;3.80;;;;;;;4.92;100.00;101758.34;4897657;29;20458;-78
2022/10/20 08:33:56;;;;;;;3.93;2.50;;;;;;;4.89;100.00;101753.06;4980545;28;20047;-80
2022/10/20 08:36:22;;;;;;;6.10;3.30;;;;;;;5.06;100.00;101756.03;4979847;28;20081;-79
2022/10/20 08:38:49;;;;;;;5.07;2.97;;;;;;;5.55;100.00;101751.66;4962941;28;20054;-80
2022/10/20 08:41:28;;;;;;;5.57;2.80;;;;;;;5.63;100.00;101734.31;4945191;28;20054;-79
2022/10/20 08:44:17;;;;;;;6.40;2.50;;;;;;;5.72;100.00;101739.75;4956008;28;20106;-80
2022/10/20 08:46:43;;;;;;;5.93;2.70;;;;;;;5.99;100.00;101743.72;4966817;28;20401;-79
2022/10/20 08:49:19;;;;;;;4.70;3.33;;;;;;;6.10;100.00;101736.88;4966778;28;20039;-79
2022/10/20 08:51:46;;;;;;;4.90;2.87;;;;;;;6.27;100.00;101747.63;4966993;28;20129;-82
2022/10/20 08:54:14;;;;;;;4.93;3.33;;;;;;;6.44;100.00;101731.25;4948743;28;20061;-79
2022/10/20 08:56:41;;;;;;;4.80;2.83;;;;;;;6.73;100.00;101723.75;4984315;28;20051;-79
2022/10/20 08:59:32;;;;;;;3.80;2.30;;;;;;;6.92;100.00;101726.59;4951638;28;20043;-81
2022/10/20 09:01:59;;;;;;;3.57;2.50;;;;;;;7.15;100.00;101724.22;4962441;28;20075;-80
2022/10/20 09:04:32;;;;;;;4.27;2.43;;;;;;;7.48;100.00;101716.69;4985892;28;20043;-80
2022/10/20 09:07:07;;;;;;;6.07;2.87;;;;;;;7.69;100.00;101717.72;4984366;28;20444;-78
2022/10/20 09:09:34;;;;;;;5.13;2.60;;;;;;;7.85;100.00;101715.22;4966592;28;20539;-79
2022/10/20 09:12:06;;;;;;;4.83;2.20;;;;;;;8.13;100.00;101716.28;4980421;28;20035;-79
2022/10/20 09:14:35;;;;;;;4.47;2.67;;;;;;;8.38;100.00;101711.19;4947294;28;20043;-78
2022/10/20 09:17:02;;;;;;;4.20;2.43;;;;;;;8.66;100.00;101715.75;4965417;28;20062;-81
2022/10/20 09:19:30;;;;;;;7.50;2.77;;;;;;;8.96;100.00;101717.59;4951221;28;20039;-80
2022/10/20 09:22:03;;;;;;;4.77;2.80;;;;;;;9.20;100.00;101716.78;4964960;28;20070;-80
2022/10/20 09:24:30;;;;;;;5.68;2.53;;;;;;;9.41;96.47;101712.41;4980750;28;20047;-79
2022/10/20 09:27:16;;;;;;;5.67;2.50;;;;;;;9.55;97.37;101703.63;4965934;28;20046;-79
2022/10/20 09:29:44;;;;;;;4.27;3.03;;;;;;;9.59;94.88;101704.53;4965185;28;20055;-78
2022/10/20 09:32:31;;;;;;;3.05;2.10;;;;;;;9.83;94.01;101701.84;4974452;28;20071;-79
2022/10/20 09:35:14;;;;;;;3.85;2.30;;;;;;;10.08;91.15;101702.69;4977254;28;20050;-79
2022/10/20 09:37:41;;;;;;;4.43;2.10;;;;;;;10.13;89.60;101694.78;4959885;28;20043;-80
2022/10/20 09:40:17;;;;;;;4.35;2.08;;;;;;;10.32;87.55;101693.88;4977027;28;20493;-78
2022/10/20 09:42:50;;;;;;;4.70;2.13;;;;;;;10.27;88.52;101689.50;4948403;28;20034;-79
2022/10/20 09:45:24;;;;;;;5.07;2.10;;;;;;;10.47;87.43;101673.59;4970323;28;20066;-80
2022/10/20 09:47:53;;;;;;;6.18;2.78;;;;;;;10.67;88.18;101671.72;4960362;28;20051;-80
2022/10/20 09:50:28;;;;;;;3.40;2.05;;;;;;;10.85;85.95;101670.78;4978935;28;20155;-80
2022/10/20 09:52:55;;;;;;;2.95;2.00;;;;;;;10.92;82.56;101670.72;4958509;28;20078;-80
2022/10/20 09:55:26;;;;;;;3.28;2.10;;;;;;;11.05;83.54;101660.06;4961292;28;20471;-81
2022/10/20 09:57:54;;;;;;;2.75;2.08;;;;;;;11.27;84.83;101652.00;4977887;28;20052;-81
2022/10/20 10:00:26;;;;;;;3.38;2.17;;;;;;;11.31;83.65;101654.59;4963485;28;20648;-78
2022/10/20 10:03:22;;;;;;;4.38;2.28;;;;;;;11.22;79.99;101634.38;4946079;28;20042;-80
2022/10/20 10:05:52;;;;;;;5.50;2.03;;;;;;;11.49;81.93;101646.50;4994059;28;20039;-80
2022/10/20 10:08:21;;;;;;;4.13;2.20;;;;;;;11.55;80.51;101631.47;4950965;28;20039;-78
2022/10/20 10:11:00;;;;;;;5.00;2.25;;;;;;;11.58;78.63;101627.91;4960915;28;20050;-79
2022/10/20 10:13:29;;;;;;;4.53;2.70;;;;;;;11.61;76.04;101625.25;4959605;28;20046;-80
2022/10/20 10:16:02;;;;;;;4.15;2.35;;;;;;;11.80;76.83;101618.91;4957586;28;20071;-78
2022/10/20 10:18:28;;;;;;;3.28;2.22;;;;;;;11.99;76.79;101613.41;4955323;28;20047;-79
2022/10/20 10:21:04;;;;;;;3.97;2.28;;;;;;;11.86;73.76;101619.75;4960477;29;20082;-82
2022/10/20 10:23:35;;;;;;;3.22;2.35;;;;;;;11.82;74.15;101613.59;4945730;28;20098;-79
2022/10/20 10:26:02;;;;;;;3.65;2.22;;;;;;;11.90;74.29;101610.88;4964914;28;20062;-81
2022/10/20 10:28:35;;;;;;;4.35;2.33;;;;;;;11.71;75.42;101595.13;4964264;28;20109;-78
2022/10/20 10:31:15;;;;;;;4.07;2.55;;;;;;;11.46;76.50;101602.44;4976123;28;20050;-78
2022/10/20 10:33:42;;;;;;;4.30;2.08;;;;;;;11.32;76.93;101600.78;4961317;28;20058;-80
2022/10/20 10:36:28;;;;;;;4.50;2.40;;;;;;;11.50;76.30;101582.97;4957262;28;20082;-79
2022/10/20 10:38:55;;;;;;;5.30;2.83;;;;;;;11.66;75.90;101578.41;4972994;28;20411;-78
2022/10/20 10:41:51;;;;;;;4.93;2.85;;;;;;;11.59;76.36;101579.38;4965635;28;20094;-80
2022/10/20 10:44:36;;;;;;;4.53;2.30;;;;;;;11.77;77.34;101573.91;4937700;29;20046;-78
2022/10/20 10:47:19;;;;;;;5.25;2.90;;;;;;;11.99;75.54;101566.59;4958338;28;20050;-79
2022/10/20 10:50:15;;;;;;;5.03;2.50;;;;;;;11.87;73.95;101574.72;4972009;28;20035;-78
2022/10/20 10:52:49;;;;;;;6.57;5.97;;;;;;;11.94;74.42;101571.09;4969258;28;20070;-79
2022/10/20 10:55:21;;;;;;;4.70;3.00;;;;;;;12.07;73.26;101558.56;4975812;28;20051;-80
2022/10/20 10:58:33;;;;;;;12.27;6.88;;;;;;;11.94;74.23;101554.31;4971862;28;20122;-79
2022/10/20 11:01:06;;;;;;;8.10;6.28;;;;;;;12.09;75.27;101556.78;4987503;28;20035;-79
2022/10/20 11:03:51;;;;;;;3.55;3.00;;;;;;;12.03;76.06;101547.16;4976167;28;20122;-78
2022/10/20 11:06:32;;;;;;;4.65;3.45;;;;;;;12.06;75.65;101546.22;4964007;28;20054;-79
2022/10/20 11:08:59;;;;;;;3.95;2.53;;;;;;;11.94;72.22;101549.91;4939607;28;20043;-79
2022/10/20 11:11:47;;;;;;;3.47;2.45;;;;;;;12.10;72.45;101540.88;4975180;28;20054;-80
2022/10/20 11:14:28;;;;;;;3.40;2.20;;;;;;;11.96;71.29;101526.94;4954798;28;20039;-78
2022/10/20 11:17:10;;;;;;;4.47;3.10;;;;;;;12.24;71.67;101524.78;4973467;28;20070;-80
2022/10/20 11:19:59;;;;;;;4.88;4.47;;;;;;;12.52;74.91;101512.03;4976574;28;20039;-79
2022/10/20 11:22:44;;;;;;;3.78;2.58;;;;;;;12.42;74.45;101507.75;4975447;28;20662;-79
2022/10/20 11:25:21;;;;;;;4.50;3.05;;;;;;;12.44;71.02;101502.44;4975793;28;20042;-78
2022/10/20 11:27:48;;;;;;;5.25;2.80;;;;;;;12.57;72.74;101506.66;4975128;28;20050;-79
2022/10/20 11:30:20;;;;;;;4.35;2.38;;;;;;;12.45;71.66;101498.91;4958067;28;20093;-79
2022/10/20 11:32:54;;;;;;;4.63;2.70;;;;;;;12.40;69.92;101491.88;4972956;28;20039;-79
2022/10/20 11:35:28;;;;;;;4.78;3.00;;;;;;;12.47;72.14;101487.38;4972792;28;20118;-80
2022/10/20 11:38:06;;;;;;;;;;;;;;;12.48;73.03;101478.53;4974651;28;20169;-79
2022/10/20 11:40:41;;;;;;;3.83;2.78;;;;;;;12.52;69.62;101480.22;4959085;28;19922;-79
2022/10/20 11:43:29;;;;;;;3.70;2.72;;;;;;;12.55;73.17;101476.66;4957199;28;20058;-79